createdAt,value
2022-10-03T00:02:10.688Z,7.15
2022-10-03T00:05:00.149Z,8.38
2022-10-03T00:07:58.054Z,7.55
2022-10-03T00:10:48.222Z,7.80
2022-10-03T00:13:20.251Z,9.38
2022-10-03T00:15:50.374Z,7.18
2022-10-03T00:18:34.323Z,7.75
2022-10-03T00:21:25.429Z,6.85
2022-10-03T00:24:14.865Z,7.55
2022-10-03T00:27:18.708Z,7.95
2022-10-03T00:30:01.412Z,7.15
2022-10-03T00:32:49.018Z,6.50
2022-10-03T00:35:39.206Z,7.78
2022-10-03T00:38:36.610Z,6.57
2022-10-03T00:41:06.188Z,5.75
2022-10-03T00:43:47.281Z,6.80
2022-10-03T00:46:20.843Z,6.25
2022-10-03T00:48:47.377Z,6.18
2022-10-03T00:51:38.261Z,7.00
2022-10-03T00:54:30.318Z,6.70
2022-10-03T00:57:14.931Z,7.07
2022-10-03T01:00:01.884Z,6.00
2022-10-03T01:02:55.538Z,5.80
2022-10-03T01:05:31.619Z,6.85
2022-10-03T01:08:19.081Z,6.13
2022-10-03T01:10:58.045Z,6.28
2022-10-03T01:13:39.510Z,5.28
2022-10-03T01:16:27.487Z,4.63
2022-10-03T01:19:03.586Z,5.43
2022-10-03T01:21:47.689Z,5.53
2022-10-03T01:24:32.584Z,5.80
2022-10-03T01:27:13.579Z,6.05
2022-10-03T01:30:02.167Z,6.30
2022-10-03T01:33:02.885Z,6.40
2022-10-03T01:35:54.146Z,5.60
2022-10-03T01:38:20.716Z,4.22
2022-10-03T01:41:02.897Z,5.53
2022-10-03T01:43:42.971Z,4.43
2022-10-03T01:46:12.529Z,5.63
2022-10-03T01:49:04.976Z,5.35
2022-10-03T01:52:12.875Z,4.13
2022-10-03T01:54:43.726Z,4.95
2022-10-03T01:57:28.077Z,4.07
2022-10-03T02:02:31.475Z,3.15
2022-10-03T02:05:12.768Z,4.15
2022-10-03T02:08:03.386Z,4.82
2022-10-03T02:11:01.626Z,5.57
2022-10-03T02:13:37.285Z,5.68
2022-10-03T02:16:22.698Z,4.80
2022-10-03T02:19:06.191Z,3.30
2022-10-03T02:21:33.265Z,5.30
2022-10-03T02:24:40.882Z,4.47
2022-10-03T02:27:29.082Z,4.47
2022-10-03T02:30:15.762Z,2.47
2022-10-03T02:33:17.558Z,3.67
2022-10-03T02:36:21.445Z,4.05
2022-10-03T02:38:59.558Z,5.40
2022-10-03T02:41:39.432Z,3.50
2022-10-03T02:44:14.945Z,3.70
2022-10-03T02:47:01.234Z,3.03
2022-10-03T02:49:52.561Z,2.30
2022-10-03T02:52:26.345Z,4.57
2022-10-03T02:55:05.519Z,3.80
2022-10-03T02:57:47.194Z,3.63
2022-10-03T03:00:21.019Z,3.60
2022-10-03T03:03:08.288Z,3.65
2022-10-03T03:05:42.846Z,4.30
2022-10-03T03:08:35.614Z,3.60
2022-10-03T03:11:20.883Z,3.90
2022-10-03T03:14:09.446Z,3.15
2022-10-03T03:16:51.039Z,3.15
2022-10-03T03:19:50.790Z,3.40
2022-10-03T03:22:17.108Z,3.10
2022-10-03T03:25:09.992Z,3.67
2022-10-03T03:28:13.343Z,3.58
2022-10-03T03:31:16.365Z,3.15
2022-10-03T03:34:07.043Z,3.60
2022-10-03T03:36:50.009Z,3.83
2022-10-03T03:39:44.046Z,3.30
2022-10-03T03:42:40.206Z,3.35
2022-10-03T03:45:20.676Z,3.72
2022-10-03T03:48:06.056Z,3.17
2022-10-03T03:50:35.099Z,3.47
2022-10-03T03:53:34.892Z,3.22
2022-10-03T03:56:20.183Z,3.13
2022-10-03T03:58:56.741Z,2.42
2022-10-03T04:01:46.801Z,3.67
2022-10-03T04:04:41.123Z,2.88
2022-10-03T04:07:26.201Z,2.42
2022-10-03T04:10:06.057Z,2.80
2022-10-03T04:12:36.961Z,2.47
2022-10-03T04:15:21.559Z,3.17
2022-10-03T04:18:33.794Z,2.88
2022-10-03T04:21:23.117Z,2.55
2022-10-03T04:24:17.361Z,3.45
2022-10-03T04:26:52.920Z,3.30
2022-10-03T04:29:37.614Z,3.05
2022-10-03T04:32:41.559Z,2.03
2022-10-03T04:35:45.809Z,2.50
2022-10-03T04:39:00.600Z,2.70
2022-10-03T04:42:09.349Z,2.42
2022-10-03T04:44:55.058Z,2.35
2022-10-03T04:47:53.961Z,3.72
2022-10-03T04:50:26.027Z,2.00
2022-10-03T04:53:19.521Z,3.67
2022-10-03T04:55:54.614Z,1.70
2022-10-03T04:58:32.101Z,2.30
2022-10-03T05:01:29.774Z,2.78
2022-10-03T05:04:11.173Z,2.55
2022-10-03T05:07:14.326Z,2.10
2022-10-03T05:10:05.837Z,2.40
2022-10-03T05:12:58.330Z,3.40
2022-10-03T05:15:28.039Z,3.10
2022-10-03T05:18:02.356Z,2.42
2022-10-03T05:20:52.902Z,2.90
2022-10-03T05:23:24.829Z,2.28
2022-10-03T05:26:23.118Z,2.33
2022-10-03T05:29:05.443Z,4.18
2022-10-03T05:31:38.786Z,2.63
2022-10-03T05:34:28.045Z,4.20
2022-10-03T05:37:15.809Z,1.65
2022-10-03T05:39:45.669Z,2.38
2022-10-03T05:42:36.817Z,2.22
2022-10-03T05:45:21.463Z,2.30
2022-10-03T05:47:55.355Z,2.90
2022-10-03T05:51:04.065Z,1.88
2022-10-03T05:53:42.831Z,1.83
2022-10-03T05:56:40.899Z,1.88
2022-10-03T05:59:23.013Z,1.50
2022-10-03T06:01:59.399Z,1.75
2022-10-03T06:04:56.905Z,2.30
2022-10-03T06:07:26.413Z,2.72
2022-10-03T06:10:36.096Z,1.98
2022-10-03T06:13:40.082Z,2.17
2022-10-03T06:16:43.867Z,2.53
2022-10-03T06:19:10.220Z,2.15
2022-10-03T06:22:00.823Z,2.30
2022-10-03T06:24:32.960Z,3.47
2022-10-03T06:27:10.438Z,2.08
2022-10-03T06:30:11.685Z,1.90
2022-10-03T06:32:56.897Z,2.10
2022-10-03T06:35:32.691Z,1.55
2022-10-03T06:38:37.041Z,1.63
2022-10-03T06:41:41.201Z,2.35
2022-10-03T06:44:29.625Z,1.77
2022-10-03T06:46:55.970Z,2.28
2022-10-03T06:49:40.882Z,1.90
2022-10-03T06:52:19.807Z,1.13
2022-10-03T06:54:55.227Z,1.63
2022-10-03T06:57:54.325Z,2.67
2022-10-03T07:00:22.052Z,3.63
2022-10-03T07:03:10.215Z,1.58
2022-10-03T07:06:07.754Z,3.33
2022-10-03T07:09:00.259Z,4.50
2022-10-03T07:11:57.290Z,8.27
2022-10-03T07:14:38.953Z,4.50
2022-10-03T07:17:30.096Z,7.07
2022-10-03T07:19:56.701Z,4.88
2022-10-03T07:23:00.213Z,2.88
2022-10-03T07:25:32.730Z,3.97
2022-10-03T07:28:32.385Z,4.45
2022-10-03T07:31:21.035Z,3.60
2022-10-03T07:34:09.408Z,4.28
2022-10-03T07:37:32.407Z,3.45
2022-10-03T07:40:12.716Z,3.10
2022-10-03T07:43:16.859Z,6.25
2022-10-03T07:46:06.092Z,7.47
2022-10-03T07:49:06.643Z,2.80
2022-10-03T07:52:11.193Z,6.18
2022-10-03T07:54:49.426Z,3.00
2022-10-03T07:57:36.589Z,6.05
2022-10-03T08:00:12.016Z,6.07
2022-10-03T08:03:14.605Z,8.00
2022-10-03T08:06:05.747Z,3.58
2022-10-03T08:08:54.093Z,8.48
2022-10-03T08:11:27.651Z,3.83
2022-10-03T08:14:19.145Z,9.13
2022-10-03T08:17:01.218Z,3.92
2022-10-03T08:19:45.609Z,4.97
2022-10-03T08:25:16.838Z,5.28
2022-10-03T08:28:00.503Z,4.32
2022-10-03T08:30:45.654Z,4.22
2022-10-03T08:33:42.780Z,6.68
2022-10-03T08:36:31.023Z,8.93
2022-10-03T08:39:12.845Z,9.98
2022-10-03T08:42:18.714Z,7.95
2022-10-03T08:45:06.354Z,10.15
2022-10-03T08:48:09.075Z,8.68
2022-10-03T08:50:54.255Z,15.05
2022-10-03T08:54:00.455Z,8.63
2022-10-03T08:56:59.232Z,8.55
2022-10-03T08:59:51.495Z,9.10
2022-10-03T09:02:20.963Z,7.93
2022-10-03T09:05:01.099Z,7.43
2022-10-03T09:07:34.104Z,12.05
2022-10-03T09:10:24.853Z,10.55
2022-10-03T09:13:06.663Z,6.93
2022-10-03T09:16:14.872Z,9.32
2022-10-03T09:19:02.958Z,7.78
2022-10-03T09:21:40.778Z,12.88
2022-10-03T09:24:21.683Z,10.30
2022-10-03T09:26:54.132Z,9.63
2022-10-03T09:29:37.859Z,9.85
2022-10-03T09:32:13.304Z,6.35
2022-10-03T09:35:17.425Z,7.90
2022-10-03T09:37:52.789Z,5.47
2022-10-03T09:40:57.215Z,7.13
2022-10-03T09:43:46.329Z,7.72
2022-10-03T09:46:36.559Z,8.20
2022-10-03T09:49:33.276Z,6.57
2022-10-03T09:52:25.156Z,7.15
2022-10-03T09:55:12.642Z,7.90
2022-10-03T09:58:10.135Z,5.03
2022-10-03T10:00:45.683Z,4.65
2022-10-03T10:03:44.544Z,9.48
2022-10-03T10:06:55.630Z,6.28
2022-10-03T10:09:40.893Z,6.50
2022-10-03T10:12:13.951Z,3.72
2022-10-03T10:14:50.315Z,9.30
2022-10-03T10:17:26.346Z,4.32
2022-10-03T10:20:01.301Z,5.57
2022-10-03T10:22:49.866Z,7.38
2022-10-03T10:25:53.227Z,3.83
2022-10-03T10:28:36.474Z,8.02
2022-10-03T10:31:11.127Z,7.43
2022-10-03T10:34:02.056Z,3.88
2022-10-03T10:36:51.177Z,6.63
2022-10-03T10:40:02.656Z,6.43
2022-10-03T10:42:53.408Z,5.18
2022-10-03T10:45:56.924Z,4.75
2022-10-03T10:49:03.860Z,5.85
2022-10-03T10:51:30.416Z,7.05
2022-10-03T10:54:15.245Z,5.30
2022-10-03T10:56:44.423Z,5.45
2022-10-03T10:59:32.406Z,5.05
2022-10-03T11:02:40.590Z,4.30
2022-10-03T11:05:25.257Z,6.13
2022-10-03T11:08:13.910Z,2.85
2022-10-03T11:11:26.234Z,3.70
2022-10-03T11:13:55.566Z,2.70
2022-10-03T11:16:40.584Z,5.00
2022-10-03T11:19:32.034Z,4.68
2022-10-03T11:22:33.025Z,4.18
2022-10-03T11:25:08.595Z,4.22
2022-10-03T11:27:55.447Z,6.60
2022-10-03T11:30:43.343Z,3.28
2022-10-03T11:33:46.898Z,1.90
2022-10-03T11:36:41.649Z,4.00
2022-10-03T11:39:27.679Z,4.30
2022-10-03T11:42:33.406Z,4.07
2022-10-03T11:45:04.493Z,2.20
2022-10-03T11:47:45.230Z,3.42
2022-10-03T11:50:18.932Z,2.70
2022-10-03T11:53:01.938Z,4.47
2022-10-03T11:55:59.889Z,3.03
2022-10-03T11:58:47.478Z,3.50
2022-10-03T12:01:32.190Z,5.53
2022-10-03T12:04:32.006Z,4.47
2022-10-03T12:07:24.725Z,3.13
2022-10-03T12:10:17.355Z,2.88
2022-10-03T12:12:46.023Z,3.33
2022-10-03T12:15:31.365Z,3.70
2022-10-03T12:18:07.046Z,3.20
2022-10-03T12:20:40.120Z,2.70
2022-10-03T12:23:21.717Z,3.75
2022-10-03T12:25:49.150Z,5.03
2022-10-03T12:28:20.863Z,3.00
2022-10-03T12:30:56.908Z,3.53
2022-10-03T12:33:44.943Z,1.98
2022-10-03T12:36:16.357Z,4.45
2022-10-03T12:38:51.137Z,2.92
2022-10-03T12:41:54.730Z,2.88
2022-10-03T12:44:40.811Z,2.20
2022-10-03T12:47:32.303Z,2.47
2022-10-03T12:50:25.595Z,1.65
2022-10-03T12:53:08.500Z,3.92
2022-10-03T12:55:38.326Z,2.25
2022-10-03T12:58:33.547Z,2.35
2022-10-03T13:01:09.033Z,3.08
2022-10-03T13:03:52.091Z,2.35
2022-10-03T13:07:04.546Z,3.67
2022-10-03T13:09:38.601Z,2.28
2022-10-03T13:12:25.531Z,1.40
2022-10-03T13:15:31.845Z,2.80
2022-10-03T13:18:19.633Z,3.30
2022-10-03T13:21:45.625Z,2.95
2022-10-03T13:24:42.468Z,3.45
2022-10-03T13:27:20.362Z,3.42
2022-10-03T13:29:48.745Z,3.55
2022-10-03T13:32:31.732Z,3.63
2022-10-03T13:35:20.231Z,2.72
2022-10-03T13:38:13.265Z,2.97
2022-10-03T13:40:43.571Z,3.08
2022-10-03T13:43:13.595Z,3.03
2022-10-03T13:45:42.305Z,2.17
2022-10-03T13:48:12.185Z,5.03
2022-10-03T13:50:52.875Z,3.33
2022-10-03T13:53:35.914Z,2.63
2022-10-03T13:56:11.612Z,3.58
2022-10-03T13:58:45.565Z,3.08
2022-10-03T14:01:24.223Z,3.67
2022-10-03T14:04:28.836Z,2.47
2022-10-03T14:07:15.535Z,4.10
2022-10-03T14:09:57.820Z,4.20
2022-10-03T14:12:54.766Z,4.43
2022-10-03T14:15:39.319Z,3.25
2022-10-03T14:18:15.477Z,3.38
2022-10-03T14:21:00.970Z,1.92
2022-10-03T14:24:05.577Z,2.40
2022-10-03T14:26:41.065Z,3.65
2022-10-03T14:29:10.505Z,5.45
2022-10-03T14:31:56.263Z,2.30
2022-10-03T14:34:42.473Z,2.35
2022-10-03T14:37:24.248Z,2.88
2022-10-03T14:39:58.848Z,3.78
2022-10-03T14:42:32.351Z,6.10
2022-10-03T14:45:29.586Z,3.60
2022-10-03T14:48:20.423Z,2.90
2022-10-03T14:50:48.765Z,3.00
2022-10-03T14:53:20.446Z,7.30
2022-10-03T14:56:05.125Z,4.57
2022-10-03T14:58:44.099Z,4.38
2022-10-03T15:01:14.771Z,3.75
2022-10-03T15:04:04.273Z,2.83
2022-10-03T15:06:54.663Z,3.13
2022-10-03T15:09:40.841Z,2.22
2022-10-03T15:12:20.078Z,5.15
2022-10-03T15:14:56.406Z,3.28
2022-10-03T15:17:24.891Z,6.07
2022-10-03T15:19:55.352Z,3.42
2022-10-03T15:22:36.225Z,1.85
2022-10-03T15:25:13.859Z,3.95
2022-10-03T15:27:41.204Z,3.85
2022-10-03T15:30:08.173Z,2.63
2022-10-03T15:32:37.968Z,3.03
2022-10-03T15:35:05.118Z,1.88
2022-10-03T15:37:37.317Z,3.50
2022-10-03T15:40:12.449Z,1.90
2022-10-03T15:43:03.137Z,4.13
2022-10-03T15:45:32.195Z,3.55
2022-10-03T15:48:00.533Z,3.20
2022-10-03T15:50:30.839Z,3.78
2022-10-03T15:53:24.087Z,2.63
2022-10-03T15:55:53.107Z,1.55
2022-10-03T15:58:25.390Z,2.70
2022-10-03T16:01:08.676Z,2.53
2022-10-03T16:03:49.749Z,2.30
2022-10-03T16:06:32.324Z,2.78
2022-10-03T16:09:11.031Z,5.35
2022-10-03T16:11:55.799Z,3.35
2022-10-03T16:14:23.254Z,2.42
2022-10-03T16:16:55.673Z,3.65
2022-10-03T16:19:33.739Z,8.05
2022-10-03T16:22:19.237Z,10.20
2022-10-03T16:24:52.162Z,5.63
2022-10-03T16:27:20.990Z,5.90
2022-10-03T16:30:14.803Z,4.43
2022-10-03T16:32:55.679Z,5.27
2022-10-03T16:35:43.913Z,3.95
2022-10-03T16:38:24.415Z,5.93
2022-10-03T16:40:55.779Z,5.47
2022-10-03T16:43:22.326Z,8.85
2022-10-03T16:45:49.099Z,4.55
2022-10-03T16:48:47.805Z,3.38
2022-10-03T16:51:22.040Z,3.33
2022-10-03T16:53:50.636Z,7.72
2022-10-03T16:56:19.666Z,4.65
2022-10-03T16:58:53.939Z,2.28
2022-10-03T17:01:33.406Z,5.97
2022-10-03T17:04:16.113Z,1.33
2022-10-03T17:06:45.751Z,5.00
2022-10-03T17:09:28.346Z,6.40
2022-10-03T17:11:58.916Z,5.05
2022-10-03T17:14:28.184Z,4.65
2022-10-03T17:17:08.732Z,3.05
2022-10-03T17:20:08.145Z,3.60
2022-10-03T17:22:41.262Z,7.60
2022-10-03T17:25:35.953Z,6.13
2022-10-03T17:30:47.675Z,10.05
2022-10-03T17:33:22.550Z,6.95
2022-10-03T17:36:32.652Z,4.88
2022-10-03T17:39:03.684Z,4.40
2022-10-03T17:42:09.051Z,10.75
2022-10-03T17:44:59.583Z,5.22
2022-10-03T17:47:48.551Z,6.72
2022-10-03T17:50:20.730Z,9.95
2022-10-03T17:52:47.254Z,5.95
2022-10-03T17:55:27.420Z,4.75
2022-10-03T17:57:55.681Z,6.45
2022-10-03T18:00:24.101Z,11.38
2022-10-03T18:02:54.907Z,7.03
2022-10-03T18:05:28.213Z,6.00
2022-10-03T18:07:55.010Z,8.05
2022-10-03T18:10:27.393Z,6.15
2022-10-03T18:12:55.727Z,8.20
2022-10-03T18:15:42.361Z,3.00
2022-10-03T18:18:48.316Z,8.13
2022-10-03T18:21:32.535Z,5.20
2022-10-03T18:24:12.831Z,5.25
2022-10-03T18:26:47.788Z,3.65
2022-10-03T18:29:32.665Z,4.53
2022-10-03T18:32:09.951Z,3.63
2022-10-03T18:34:47.228Z,4.95
2022-10-03T18:37:23.777Z,2.35
2022-10-03T18:39:54.405Z,9.63
2022-10-03T18:42:23.837Z,5.70
2022-10-03T18:44:50.276Z,4.57
2022-10-03T18:47:17.341Z,3.90
2022-10-03T18:49:45.566Z,3.80
2022-10-03T18:52:19.434Z,6.85
2022-10-03T18:55:34.646Z,3.28
2022-10-03T18:58:03.133Z,6.28
2022-10-03T19:00:30.182Z,6.97
2022-10-03T19:03:08.698Z,8.07
2022-10-03T19:05:39.996Z,6.03
2022-10-03T19:08:11.251Z,3.80
2022-10-03T19:10:56.598Z,7.93
2022-10-03T19:13:38.262Z,8.50
2022-10-03T19:16:21.993Z,6.20
2022-10-03T19:19:11.030Z,5.97
2022-10-03T19:21:38.969Z,3.55
2022-10-03T19:24:13.963Z,6.90
2022-10-03T19:26:48.774Z,3.17
2022-10-03T19:29:36.361Z,8.55
2022-10-03T19:32:08.692Z,4.82
2022-10-03T19:34:37.781Z,3.53
2022-10-03T19:37:07.556Z,6.88
2022-10-03T19:39:34.038Z,8.07
2022-10-03T19:42:30.273Z,69.45
2022-10-03T19:44:57.312Z,88.05
2022-10-03T19:47:38.050Z,68.22
2022-10-03T19:50:20.963Z,54.22
2022-10-03T19:52:50.613Z,45.63
2022-10-03T19:55:27.571Z,42.97
2022-10-03T19:58:04.000Z,38.92
2022-10-03T20:00:37.510Z,39.45
2022-10-03T20:03:21.525Z,40.90
2022-10-03T20:06:00.191Z,40.25
2022-10-03T20:08:44.375Z,35.13
2022-10-03T20:11:16.086Z,33.15
2022-10-03T20:13:43.835Z,32.80
2022-10-03T20:16:20.672Z,34.53
2022-10-03T20:18:49.250Z,31.85
2022-10-03T20:21:18.540Z,29.77
2022-10-03T20:23:45.533Z,32.08
2022-10-03T20:26:22.202Z,30.95
2022-10-03T20:28:56.502Z,33.05
2022-10-03T20:31:24.060Z,30.38
2022-10-03T20:33:52.281Z,26.50
2022-10-03T20:36:26.005Z,29.27
2022-10-03T20:39:12.317Z,27.83
2022-10-03T20:41:42.030Z,29.80
2022-10-03T20:44:21.658Z,26.23
2022-10-03T20:46:49.581Z,24.98
2022-10-03T20:49:28.182Z,29.20
2022-10-03T20:51:54.511Z,26.38
2022-10-03T20:54:22.246Z,32.33
2022-10-03T20:57:15.532Z,23.70
2022-10-03T20:59:45.490Z,27.60
2022-10-03T21:02:38.192Z,20.80
2022-10-03T21:05:06.101Z,21.88
2022-10-03T21:07:35.065Z,21.10
2022-10-03T21:10:10.001Z,21.55
2022-10-03T21:12:41.208Z,23.45
2022-10-03T21:15:13.117Z,23.10
2022-10-03T21:17:41.723Z,19.17
2022-10-03T21:20:12.986Z,18.98
2022-10-03T21:22:39.452Z,21.73
2022-10-03T21:25:11.976Z,20.08
2022-10-03T21:27:38.567Z,18.25
2022-10-03T21:30:18.730Z,19.75
2022-10-03T21:33:10.903Z,22.88
2022-10-03T21:35:40.973Z,21.63
2022-10-03T21:38:30.893Z,19.05
2022-10-03T21:41:07.801Z,20.38
2022-10-03T21:43:40.146Z,17.00
2022-10-03T21:46:28.909Z,18.27
2022-10-03T21:49:32.930Z,20.20
2022-10-03T21:52:14.702Z,15.52
2022-10-03T21:55:05.521Z,14.35
2022-10-03T21:57:39.373Z,13.80
2022-10-03T22:00:14.325Z,16.10
2022-10-03T22:02:50.087Z,15.00
2022-10-03T22:05:31.246Z,16.40
2022-10-03T22:07:57.701Z,13.27
2022-10-03T22:10:28.188Z,14.70
2022-10-03T22:12:59.647Z,14.57
2022-10-03T22:15:56.766Z,14.35
2022-10-03T22:18:23.242Z,15.93
2022-10-03T22:21:18.401Z,13.48
2022-10-03T22:23:58.947Z,10.52
2022-10-03T22:26:46.325Z,12.60
2022-10-03T22:29:23.835Z,11.40
2022-10-03T22:32:20.674Z,12.23
2022-10-03T22:34:52.883Z,11.90
2022-10-03T22:37:19.370Z,11.05
2022-10-03T22:39:48.339Z,11.43
2022-10-03T22:42:14.937Z,11.25
2022-10-03T22:44:43.540Z,11.93
2022-10-03T22:47:21.573Z,10.85
2022-10-03T22:49:48.177Z,12.93
2022-10-03T22:52:21.224Z,9.98
2022-10-03T22:54:47.675Z,11.88
2022-10-03T22:57:14.129Z,10.52
2022-10-03T22:59:47.778Z,7.97
2022-10-03T23:02:14.244Z,10.30
2022-10-03T23:04:44.782Z,10.98
2022-10-03T23:07:46.469Z,12.43
2022-10-03T23:10:38.790Z,10.50
2022-10-03T23:13:28.562Z,9.98
2022-10-03T23:15:59.678Z,9.75
2022-10-03T23:18:43.754Z,10.00
2022-10-03T23:21:11.010Z,9.70
2022-10-03T23:24:04.957Z,9.07
2022-10-03T23:26:53.190Z,8.45
2022-10-03T23:29:20.195Z,8.40
2022-10-03T23:31:56.402Z,8.38
2022-10-03T23:34:37.931Z,8.38
2022-10-03T23:37:26.028Z,8.40
2022-10-03T23:39:55.355Z,8.95
2022-10-03T23:42:30.907Z,8.57
2022-10-03T23:44:57.648Z,9.13
2022-10-03T23:47:30.577Z,8.18
2022-10-03T23:49:57.033Z,7.38
2022-10-03T23:52:26.922Z,8.63
2022-10-03T23:54:54.309Z,6.68
2022-10-03T23:57:20.804Z,7.30
2022-10-03T23:59:47.259Z,7.57
